Bosler, Wyoming
Current Conditions -  °F | °C
As of 10:53 AM on Friday 21 Nov 2014 (Local Time) from KLAR Reporting Station
Clear Clear  
Wind Chill: 32°   Ceiling: Unl
Heat Index: 41°   Visibility: 10mi
Dew Point: 17°   Wind: 20mph
Humidity: 38%   Direction: 240°WSW
Pressure: 29.96"   Gusts: NA
Location:  41.58°N, 105.7°W
Report Text: KLAR 211753Z AUTO 24017KT 10SM CLR 05/M08 A2996 RMK AO2 SLP118 T00501083 10050 21022 58002
Loading
Personal Weather Stations






























Interactive Weather Map New forecast layout! Learn more

10-Day Weather Forecast

Advertisements
Track Severe Weather on mobile